createdAt,value
2018-09-14T00:00:21.659Z,17.05
2018-09-14T00:01:21.884Z,17.05
2018-09-14T00:02:22.105Z,16.93
2018-09-14T00:03:22.338Z,16.97
2018-09-14T00:04:22.565Z,16.93
2018-09-14T00:05:22.789Z,17.01
2018-09-14T00:06:23.019Z,16.90
2018-09-14T00:07:23.247Z,16.97
2018-09-14T00:08:23.476Z,16.99
2018-09-14T00:09:23.705Z,17.01
2018-09-14T00:10:23.938Z,17.01
2018-09-14T00:11:24.166Z,16.93
2018-09-14T00:12:24.395Z,16.86
2018-09-14T00:13:24.622Z,17.01
2018-09-14T00:14:24.858Z,16.97
2018-09-14T00:15:25.081Z,17.08
2018-09-14T00:16:25.310Z,17.09
2018-09-14T00:17:25.538Z,17.06
2018-09-14T00:18:25.759Z,17.06
2018-09-14T00:19:25.987Z,17.15
2018-09-14T00:20:26.217Z,17.08
2018-09-14T00:21:26.446Z,17.15
2018-09-14T00:22:26.676Z,17.15
2018-09-14T00:23:26.906Z,17.11
2018-09-14T00:24:27.133Z,16.97
2018-09-14T00:25:27.365Z,17.01
2018-09-14T00:26:27.593Z,17.01
2018-09-14T00:27:27.819Z,17.04
2018-09-14T00:28:28.050Z,17.05
2018-09-14T00:29:28.281Z,17.02
2018-09-14T00:30:28.505Z,17.09
2018-09-14T00:31:28.737Z,17.06
2018-09-14T00:32:28.966Z,17.08
2018-09-14T00:33:29.195Z,17.05
2018-09-14T00:34:29.433Z,17.14
2018-09-14T00:35:29.649Z,17.09
2018-09-14T00:36:29.876Z,17.15
2018-09-14T00:37:30.105Z,17.19
2018-09-14T00:38:30.335Z,17.19
2018-09-14T00:39:30.564Z,17.16
2018-09-14T00:40:30.789Z,17.11
2018-09-14T00:41:31.027Z,17.14
2018-09-14T00:42:31.245Z,17.08
2018-09-14T00:43:31.473Z,17.04
2018-09-14T00:44:31.703Z,16.97
2018-09-14T00:45:31.934Z,17.05
2018-09-14T00:46:32.161Z,17.14
2018-09-14T00:47:32.388Z,17.05
2018-09-14T00:48:32.624Z,17.11
2018-09-14T00:49:32.846Z,17.15
2018-09-14T00:50:33.076Z,17.12
2018-09-14T00:51:33.305Z,17.08
2018-09-14T00:52:33.533Z,17.11
2018-09-14T00:53:33.760Z,17.11
2018-09-14T00:54:33.987Z,17.16
2018-09-14T00:55:34.220Z,17.06
2018-09-14T00:56:34.444Z,17.02
2018-09-14T00:57:34.675Z,17.08
2018-09-14T00:58:34.925Z,17.08
2018-09-14T00:59:35.140Z,17.01
2018-09-14T01:00:35.369Z,17.04
2018-09-14T01:01:35.598Z,17.06
2018-09-14T01:02:35.826Z,17.01
2018-09-14T01:03:36.058Z,16.96
2018-09-14T01:04:36.284Z,17.02
2018-09-14T01:05:36.514Z,17.01
2018-09-14T01:06:36.743Z,16.91
2018-09-14T01:07:36.971Z,16.93
2018-09-14T01:08:37.198Z,16.91
2018-09-14T01:09:37.427Z,16.86
2018-09-14T01:10:37.656Z,16.87
2018-09-14T01:11:37.882Z,16.86
2018-09-14T01:12:38.109Z,16.84
2018-09-14T01:13:38.365Z,16.86
2018-09-14T01:14:38.569Z,16.90
2018-09-14T01:15:38.797Z,16.87
2018-09-14T01:16:39.024Z,16.84
2018-09-14T01:17:39.256Z,16.83
2018-09-14T01:18:39.486Z,16.90
2018-09-14T01:19:39.710Z,16.90
2018-09-14T01:20:39.952Z,16.96
2018-09-14T01:21:40.165Z,16.83
2018-09-14T01:22:40.394Z,16.75
2018-09-14T01:23:40.627Z,16.74
2018-09-14T01:24:40.848Z,16.56
2018-09-14T01:25:41.077Z,16.68
2018-09-14T01:26:41.305Z,16.71
2018-09-14T01:27:41.534Z,16.76
2018-09-14T01:28:41.758Z,16.78
2018-09-14T01:29:41.992Z,16.75
2018-09-14T01:30:42.213Z,16.69
2018-09-14T01:31:42.443Z,16.66
2018-09-14T01:32:42.666Z,16.69
2018-09-14T01:33:42.896Z,16.69
2018-09-14T01:34:43.122Z,16.66
2018-09-14T01:35:43.354Z,16.53
2018-09-14T01:36:43.579Z,16.68
2018-09-14T01:37:43.806Z,16.64
2018-09-14T01:38:44.035Z,16.65
2018-09-14T01:39:44.262Z,16.72
2018-09-14T01:40:44.496Z,16.69
2018-09-14T01:41:44.721Z,16.49
2018-09-14T01:42:44.953Z,16.60
2018-09-14T01:43:45.194Z,16.53
2018-09-14T01:44:45.404Z,16.57
2018-09-14T01:45:45.608Z,16.69
2018-09-14T01:46:45.840Z,16.71
2018-09-14T01:47:46.071Z,16.58
2018-09-14T01:48:46.297Z,16.56
2018-09-14T01:49:46.536Z,16.57
2018-09-14T01:50:46.753Z,16.53
2018-09-14T01:51:46.991Z,16.50
2018-09-14T01:52:47.212Z,16.38
2018-09-14T01:53:47.433Z,16.33
2018-09-14T01:54:47.663Z,16.38
2018-09-14T01:55:47.892Z,16.33
2018-09-14T01:56:48.121Z,16.17
2018-09-14T01:57:48.351Z,16.12
2018-09-14T01:58:48.579Z,16.13
2018-09-14T01:59:48.810Z,16.13
2018-09-14T02:00:49.035Z,16.26
2018-09-14T02:01:49.313Z,16.15
2018-09-14T02:02:49.497Z,16.32
2018-09-14T02:03:49.717Z,16.23
2018-09-14T02:04:49.944Z,16.26
2018-09-14T02:05:50.168Z,16.20
2018-09-14T02:06:50.396Z,16.26
2018-09-14T02:07:50.621Z,16.29
2018-09-14T02:08:50.850Z,16.24
2018-09-14T02:09:51.080Z,16.16
2018-09-14T02:10:51.305Z,16.20
2018-09-14T02:11:51.539Z,16.10
2018-09-14T02:12:51.764Z,16.09
2018-09-14T02:13:51.992Z,16.13
2018-09-14T02:14:52.224Z,16.21
2018-09-14T02:15:52.451Z,16.15
2018-09-14T02:16:52.679Z,16.28
2018-09-14T02:17:52.907Z,16.29
2018-09-14T02:18:53.133Z,16.24
2018-09-14T02:19:53.362Z,16.33
2018-09-14T02:20:53.594Z,16.32
2018-09-14T02:21:53.820Z,16.26
2018-09-14T02:22:54.053Z,16.32
2018-09-14T02:23:54.275Z,16.16
2018-09-14T02:24:54.505Z,16.24
2018-09-14T02:25:54.734Z,16.16
2018-09-14T02:26:54.962Z,16.24
2018-09-14T02:27:55.188Z,16.20
2018-09-14T02:28:55.420Z,16.12
2018-09-14T02:29:55.648Z,16.21
2018-09-14T02:30:55.876Z,16.15
2018-09-14T02:31:56.107Z,16.16
2018-09-14T02:32:56.335Z,16.16
2018-09-14T02:33:56.567Z,16.16
2018-09-14T02:34:56.792Z,16.20
2018-09-14T02:35:57.023Z,16.29
2018-09-14T02:36:57.251Z,16.10
2018-09-14T02:37:57.480Z,16.16
2018-09-14T02:38:57.710Z,16.24
2018-09-14T02:39:57.938Z,16.23
2018-09-14T02:40:58.169Z,16.23
2018-09-14T02:41:58.396Z,16.21
2018-09-14T02:42:58.629Z,16.24
2018-09-14T02:43:58.852Z,16.26
2018-09-14T02:44:59.081Z,16.32
2018-09-14T02:45:59.309Z,16.20
2018-09-14T02:46:59.539Z,16.29
2018-09-14T02:47:59.770Z,16.26
2018-09-14T02:48:59.997Z,16.26
2018-09-14T02:50:00.229Z,16.35
2018-09-14T02:51:00.466Z,16.35
2018-09-14T02:52:00.685Z,16.38
2018-09-14T02:53:00.928Z,16.36
2018-09-14T02:54:01.135Z,16.47
2018-09-14T02:55:01.379Z,16.42
2018-09-14T02:56:01.591Z,16.56
2018-09-14T02:57:01.813Z,16.57
2018-09-14T02:58:02.040Z,16.60
2018-09-14T02:59:02.275Z,16.56
2018-09-14T03:00:02.517Z,16.46
2018-09-14T03:01:02.721Z,16.60
2018-09-14T03:02:02.951Z,16.42
2018-09-14T03:03:03.180Z,16.46
2018-09-14T03:04:03.409Z,16.41
2018-09-14T03:05:03.641Z,16.38
2018-09-14T03:06:03.873Z,16.39
2018-09-14T03:07:04.098Z,16.38
2018-09-14T03:08:04.326Z,16.38
2018-09-14T03:09:04.556Z,16.35
2018-09-14T03:10:04.785Z,16.41
2018-09-14T03:11:05.016Z,16.39
2018-09-14T03:12:05.241Z,16.38
2018-09-14T03:13:05.471Z,16.23
2018-09-14T03:14:05.696Z,16.17
2018-09-14T03:15:05.935Z,16.23
2018-09-14T03:16:06.147Z,16.20
2018-09-14T03:17:06.376Z,16.28
2018-09-14T03:18:06.610Z,16.29
2018-09-14T03:19:06.837Z,16.24
2018-09-14T03:20:07.063Z,16.28
2018-09-14T03:21:07.291Z,16.15
2018-09-14T03:22:07.524Z,16.28
2018-09-14T03:23:07.756Z,16.26
2018-09-14T03:24:07.979Z,16.29
2018-09-14T03:25:08.204Z,16.26
2018-09-14T03:26:08.433Z,16.29
2018-09-14T03:27:08.661Z,16.26
2018-09-14T03:28:08.894Z,16.23
2018-09-14T03:29:09.118Z,16.26
2018-09-14T03:30:09.346Z,16.24
2018-09-14T03:31:09.578Z,16.29
2018-09-14T03:32:09.872Z,16.24
2018-09-14T03:33:10.036Z,16.24
2018-09-14T03:34:10.264Z,16.26
2018-09-14T03:35:10.497Z,16.29
2018-09-14T03:36:10.719Z,16.24
2018-09-14T03:37:10.946Z,16.28
2018-09-14T03:38:11.176Z,16.24
2018-09-14T03:39:11.453Z,16.35
2018-09-14T03:40:11.633Z,16.28
2018-09-14T03:41:11.864Z,16.21
2018-09-14T03:42:12.091Z,16.31
2018-09-14T03:43:12.319Z,16.38
2018-09-14T03:44:12.550Z,16.21
2018-09-14T03:45:12.777Z,16.29
2018-09-14T03:46:13.006Z,16.24
2018-09-14T03:47:13.234Z,16.23
2018-09-14T03:48:13.462Z,16.28
2018-09-14T03:49:13.690Z,16.13
2018-09-14T03:50:13.918Z,16.24
2018-09-14T03:51:14.145Z,16.29
2018-09-14T03:52:14.372Z,16.28
2018-09-14T03:53:14.597Z,16.31
2018-09-14T03:54:14.862Z,16.32
2018-09-14T03:55:15.061Z,16.29
2018-09-14T03:56:15.280Z,16.21
2018-09-14T03:57:15.553Z,16.41
2018-09-14T03:58:15.719Z,16.35
2018-09-14T03:59:15.951Z,16.35
2018-09-14T04:00:16.179Z,16.29
2018-09-14T04:01:16.404Z,16.23
2018-09-14T04:02:16.635Z,16.16
2018-09-14T04:03:16.865Z,16.15
2018-09-14T04:04:17.092Z,16.12
2018-09-14T04:05:17.321Z,16.15
2018-09-14T04:06:17.554Z,16.23
2018-09-14T04:07:17.783Z,16.21
2018-09-14T04:08:18.005Z,16.24
2018-09-14T04:09:18.232Z,16.28
2018-09-14T04:10:18.467Z,16.15
2018-09-14T04:11:18.696Z,16.17
2018-09-14T04:12:18.920Z,16.16
2018-09-14T04:13:19.144Z,16.16
2018-09-14T04:14:19.376Z,16.26
2018-09-14T04:15:19.606Z,16.24
2018-09-14T04:16:19.832Z,16.29
2018-09-14T04:17:20.082Z,16.10
2018-09-14T04:18:20.287Z,16.16
2018-09-14T04:19:20.515Z,16.16
2018-09-14T04:20:20.745Z,16.09
2018-09-14T04:21:20.970Z,16.15
2018-09-14T04:22:21.197Z,16.17
2018-09-14T04:23:21.462Z,16.17
2018-09-14T04:24:21.658Z,16.17
2018-09-14T04:25:21.883Z,16.13
2018-09-14T04:26:22.110Z,16.15
2018-09-14T04:27:22.333Z,16.15
2018-09-14T04:28:22.564Z,16.16
2018-09-14T04:29:22.793Z,16.28
2018-09-14T04:30:23.024Z,16.28
2018-09-14T04:31:23.252Z,16.24
2018-09-14T04:32:23.482Z,16.20
2018-09-14T04:33:23.710Z,16.39
2018-09-14T04:34:23.940Z,16.29
2018-09-14T04:35:24.161Z,16.32
2018-09-14T04:36:24.389Z,16.33
2018-09-14T04:37:24.616Z,16.26
2018-09-14T04:38:24.893Z,16.17
2018-09-14T04:39:25.068Z,16.16
2018-09-14T04:40:25.298Z,16.16
2018-09-14T04:41:25.521Z,16.15
2018-09-14T04:42:25.744Z,16.09
2018-09-14T04:43:25.974Z,16.15
2018-09-14T04:44:26.200Z,16.12
2018-09-14T04:45:26.430Z,16.09
2018-09-14T04:46:26.657Z,16.13
2018-09-14T04:47:26.885Z,16.26
2018-09-14T04:48:27.141Z,16.17
2018-09-14T04:49:27.340Z,16.26
2018-09-14T04:50:27.570Z,16.24
2018-09-14T04:51:27.852Z,16.24
2018-09-14T04:52:28.036Z,16.33
2018-09-14T04:53:28.254Z,16.24
2018-09-14T04:54:28.479Z,16.41
2018-09-14T04:55:28.708Z,16.32
2018-09-14T04:56:28.936Z,16.35
2018-09-14T04:57:29.183Z,16.26
2018-09-14T04:58:29.390Z,16.20
2018-09-14T04:59:29.615Z,16.28
2018-09-14T05:00:29.841Z,16.24
2018-09-14T05:01:30.076Z,16.28
2018-09-14T05:02:30.298Z,16.15
2018-09-14T05:03:30.525Z,16.24
2018-09-14T05:04:30.754Z,16.29
2018-09-14T05:05:30.984Z,16.23
2018-09-14T05:06:31.213Z,16.21
2018-09-14T05:07:31.447Z,16.26
2018-09-14T05:08:31.675Z,16.26
2018-09-14T05:09:31.901Z,16.31
2018-09-14T05:10:32.130Z,16.29
2018-09-14T05:11:32.355Z,16.28
2018-09-14T05:12:32.585Z,16.17
2018-09-14T05:13:32.814Z,16.28
2018-09-14T05:14:33.042Z,16.33
2018-09-14T05:15:33.270Z,16.24
2018-09-14T05:16:33.516Z,16.32
2018-09-14T05:17:33.729Z,16.24
2018-09-14T05:18:33.955Z,16.21
2018-09-14T05:19:34.186Z,16.21
2018-09-14T05:20:34.415Z,16.23
2018-09-14T05:21:34.643Z,16.15
2018-09-14T05:22:34.871Z,16.15
2018-09-14T05:23:35.101Z,16.15
2018-09-14T05:24:35.364Z,16.15
2018-09-14T05:25:35.556Z,16.13
2018-09-14T05:26:35.782Z,16.17
2018-09-14T05:27:36.016Z,16.20
2018-09-14T05:28:36.242Z,16.26
2018-09-14T05:29:36.473Z,16.26
2018-09-14T05:30:36.696Z,16.29
2018-09-14T05:31:36.978Z,16.28
2018-09-14T05:32:37.157Z,16.28
2018-09-14T05:33:37.386Z,16.23
2018-09-14T05:34:37.617Z,16.21
2018-09-14T05:35:37.845Z,16.08
2018-09-14T05:36:38.073Z,16.16
2018-09-14T05:37:38.298Z,16.17
2018-09-14T05:38:38.527Z,16.32
2018-09-14T05:39:38.753Z,16.16
2018-09-14T05:40:38.978Z,16.10
2018-09-14T05:41:39.205Z,16.15
2018-09-14T05:42:39.430Z,16.16
2018-09-14T05:43:39.656Z,16.16
2018-09-14T05:44:39.880Z,16.15
2018-09-14T05:45:40.153Z,16.08
2018-09-14T05:46:40.344Z,16.04
2018-09-14T05:47:40.573Z,15.91
2018-09-14T05:48:40.810Z,15.97
2018-09-14T05:49:41.017Z,15.98
2018-09-14T05:50:41.236Z,16.02
2018-09-14T05:51:41.467Z,16.09
2018-09-14T05:52:41.693Z,16.09
2018-09-14T05:53:41.920Z,16.05
2018-09-14T05:54:42.154Z,16.13
2018-09-14T05:55:42.383Z,16.21
2018-09-14T05:56:42.614Z,16.10
2018-09-14T05:57:42.843Z,16.20
2018-09-14T05:58:43.071Z,16.24
2018-09-14T05:59:43.301Z,16.16
2018-09-14T06:00:43.528Z,16.17
2018-09-14T06:01:43.754Z,16.28
2018-09-14T06:02:43.985Z,16.29
2018-09-14T06:03:44.204Z,16.31
2018-09-14T06:04:44.444Z,16.32
2018-09-14T06:05:44.674Z,16.42
2018-09-14T06:06:44.970Z,16.39
2018-09-14T06:07:45.131Z,16.35
2018-09-14T06:08:45.362Z,16.43
2018-09-14T06:09:45.599Z,16.38
2018-09-14T06:10:45.813Z,16.33
2018-09-14T06:11:46.052Z,16.43
2018-09-14T06:12:46.269Z,16.38
2018-09-14T06:13:46.494Z,16.33
2018-09-14T06:14:46.724Z,16.49
2018-09-14T06:15:46.953Z,16.39
2018-09-14T06:16:47.181Z,16.36
2018-09-14T06:17:47.410Z,16.39
2018-09-14T06:18:47.639Z,16.31
2018-09-14T06:19:47.870Z,16.43
2018-09-14T06:20:48.097Z,16.36
2018-09-14T06:21:48.325Z,16.43
2018-09-14T06:22:48.592Z,16.46
2018-09-14T06:23:48.780Z,16.50
2018-09-14T06:24:49.011Z,16.42
2018-09-14T06:25:49.239Z,16.49
2018-09-14T06:26:49.467Z,16.38
2018-09-14T06:27:49.696Z,16.49
2018-09-14T06:28:49.926Z,16.33
2018-09-14T06:29:50.153Z,16.38
2018-09-14T06:30:50.382Z,16.49
2018-09-14T06:31:50.610Z,16.42
2018-09-14T06:32:50.840Z,16.53
2018-09-14T06:33:51.073Z,16.49
2018-09-14T06:34:51.297Z,16.53
2018-09-14T06:35:51.531Z,16.47
2018-09-14T06:36:51.762Z,16.47
2018-09-14T06:37:51.989Z,16.42
2018-09-14T06:38:52.220Z,16.41
2018-09-14T06:39:52.466Z,16.35
2018-09-14T06:40:52.682Z,16.46
2018-09-14T06:41:52.911Z,16.33
2018-09-14T06:42:53.157Z,16.21
2018-09-14T06:43:53.368Z,16.20
2018-09-14T06:44:53.603Z,16.13
2018-09-14T06:45:53.825Z,16.21
2018-09-14T06:46:54.082Z,16.35
2018-09-14T06:47:54.281Z,16.31
2018-09-14T06:48:54.509Z,16.16
2018-09-14T06:49:54.741Z,16.15
2018-09-14T06:50:54.964Z,16.01
2018-09-14T06:51:55.195Z,15.88
2018-09-14T06:52:55.428Z,15.92
2018-09-14T06:53:55.653Z,15.88
2018-09-14T06:54:55.886Z,16.04
2018-09-14T06:55:56.111Z,16.16
2018-09-14T06:56:56.340Z,16.13
2018-09-14T06:57:56.568Z,16.12
2018-09-14T06:58:56.797Z,16.08
2018-09-14T06:59:57.032Z,16.15
2018-09-14T07:00:57.259Z,16.24
2018-09-14T07:01:57.485Z,16.21
2018-09-14T07:02:57.714Z,16.13
2018-09-14T07:03:57.941Z,16.20
2018-09-14T07:04:58.169Z,16.29
2018-09-14T07:05:58.397Z,16.26
2018-09-14T07:06:58.623Z,16.33
2018-09-14T07:07:58.856Z,16.38
2018-09-14T07:08:59.083Z,16.33
2018-09-14T07:09:59.313Z,16.35
2018-09-14T07:10:59.547Z,16.38
2018-09-14T07:11:59.769Z,16.35
2018-09-14T07:13:00.002Z,16.43
2018-09-14T07:14:00.234Z,16.36
2018-09-14T07:15:00.459Z,16.47
2018-09-14T07:16:00.684Z,16.39
2018-09-14T07:17:00.911Z,16.33
2018-09-14T07:18:01.141Z,16.32
2018-09-14T07:19:01.367Z,16.35
2018-09-14T07:20:01.600Z,16.41
2018-09-14T07:21:01.827Z,16.43
2018-09-14T07:22:02.109Z,16.57
2018-09-14T07:23:02.284Z,16.68
2018-09-14T07:24:02.513Z,16.68
2018-09-14T07:25:02.751Z,16.66
2018-09-14T07:26:02.976Z,16.78
2018-09-14T07:27:03.229Z,16.87
2018-09-14T07:28:03.428Z,16.93
2018-09-14T07:29:03.759Z,16.89
2018-09-14T07:30:03.915Z,16.90
2018-09-14T07:31:04.118Z,16.81
2018-09-14T07:32:04.347Z,16.91
2018-09-14T07:33:04.617Z,16.78
2018-09-14T07:34:04.806Z,16.74
2018-09-14T07:35:05.036Z,16.84
2018-09-14T07:36:05.266Z,16.94
2018-09-14T07:37:05.496Z,16.93
2018-09-14T07:38:05.728Z,16.90
2018-09-14T07:39:05.952Z,17.02
2018-09-14T07:40:06.184Z,17.09
2018-09-14T07:41:06.414Z,17.06
2018-09-14T07:42:06.643Z,17.14
2018-09-14T07:43:06.871Z,17.24
2018-09-14T07:44:07.106Z,17.29
2018-09-14T07:45:07.327Z,17.41
2018-09-14T07:46:07.556Z,17.41
2018-09-14T07:47:07.785Z,17.46
2018-09-14T07:48:08.033Z,17.48
2018-09-14T07:49:08.245Z,17.56
2018-09-14T07:50:08.475Z,17.57
2018-09-14T07:51:08.701Z,17.67
2018-09-14T07:52:08.932Z,17.78
2018-09-14T07:53:09.165Z,17.79
2018-09-14T07:54:09.393Z,17.72
2018-09-14T07:55:09.618Z,17.80
2018-09-14T07:56:09.847Z,17.80
2018-09-14T07:57:10.080Z,17.95
2018-09-14T07:58:10.312Z,18.03
2018-09-14T07:59:10.537Z,18.15
2018-09-14T08:00:10.767Z,18.35
2018-09-14T08:01:11.003Z,18.44
2018-09-14T08:02:11.230Z,18.56
2018-09-14T08:03:11.461Z,18.63
2018-09-14T08:04:11.689Z,18.65
2018-09-14T08:05:11.920Z,18.62
2018-09-14T08:06:12.189Z,18.62
2018-09-14T08:07:12.380Z,18.60
2018-09-14T08:08:12.607Z,18.49
2018-09-14T08:09:12.835Z,18.55
2018-09-14T08:10:13.064Z,18.35
2018-09-14T08:11:13.302Z,18.34
2018-09-14T08:12:13.523Z,18.29
2018-09-14T08:13:13.808Z,18.31
2018-09-14T08:14:13.989Z,18.40
2018-09-14T08:15:14.216Z,18.23
2018-09-14T08:16:14.452Z,18.34
2018-09-14T08:17:14.684Z,18.37
2018-09-14T08:18:14.912Z,18.19
2018-09-14T08:19:15.147Z,18.31
2018-09-14T08:20:15.449Z,18.50
2018-09-14T08:21:15.655Z,18.60
2018-09-14T08:22:15.836Z,18.52
2018-09-14T08:23:16.071Z,18.65
2018-09-14T08:24:16.296Z,18.81
2018-09-14T08:25:16.532Z,18.90
2018-09-14T08:26:16.757Z,18.89
2018-09-14T08:27:17.056Z,18.95
2018-09-14T08:28:17.221Z,18.78
2018-09-14T08:29:17.452Z,18.60
2018-09-14T08:30:17.686Z,18.63
2018-09-14T08:31:17.915Z,18.84
2018-09-14T08:32:18.208Z,18.95
2018-09-14T08:33:18.379Z,18.95
2018-09-14T08:34:18.608Z,18.77
2018-09-14T08:35:18.838Z,18.93
2018-09-14T08:36:19.067Z,18.92
2018-09-14T08:37:19.296Z,19.09
2018-09-14T08:38:19.527Z,19.12
2018-09-14T08:39:19.765Z,19.12
2018-09-14T08:40:19.991Z,19.22
2018-09-14T08:41:20.224Z,19.39
2018-09-14T08:42:20.454Z,19.40
2018-09-14T08:43:20.684Z,19.51
2018-09-14T08:44:20.907Z,19.77
2018-09-14T08:45:21.139Z,19.76
2018-09-14T08:46:21.369Z,19.88
2018-09-14T08:47:21.606Z,19.82
2018-09-14T08:48:21.838Z,19.74
2018-09-14T08:49:22.067Z,19.67
2018-09-14T08:50:22.298Z,19.79
2018-09-14T08:51:22.529Z,19.84
2018-09-14T08:52:22.759Z,19.95
2018-09-14T08:53:22.993Z,19.92
2018-09-14T08:54:23.220Z,20.10
2018-09-14T08:55:23.450Z,20.16
2018-09-14T08:56:23.679Z,20.24
2018-09-14T08:57:23.910Z,19.95
2018-09-14T08:58:24.146Z,20.00
2018-09-14T08:59:24.377Z,19.79
2018-09-14T09:00:24.611Z,19.92
2018-09-14T09:01:24.840Z,20.03
2018-09-14T09:02:25.077Z,20.02
2018-09-14T09:03:25.305Z,20.14
2018-09-14T09:04:25.536Z,20.21
2018-09-14T09:05:25.771Z,20.29
2018-09-14T09:06:26.002Z,20.25
2018-09-14T09:07:26.234Z,20.13
2018-09-14T09:08:26.468Z,20.04
2018-09-14T09:09:26.703Z,19.96
2018-09-14T09:10:26.922Z,19.91
2018-09-14T09:11:27.289Z,19.86
2018-09-14T09:12:27.384Z,19.81
2018-09-14T09:13:27.619Z,19.66
2018-09-14T09:14:27.850Z,19.66
2018-09-14T09:15:28.080Z,19.55
2018-09-14T09:16:28.309Z,19.62
2018-09-14T09:17:28.539Z,19.67
2018-09-14T09:18:28.786Z,19.86
2018-09-14T09:19:29.050Z,19.79
2018-09-14T09:20:29.248Z,19.73
2018-09-14T09:21:29.478Z,19.74
2018-09-14T09:22:29.709Z,19.85
2018-09-14T09:23:29.996Z,19.89
2018-09-14T09:24:30.170Z,19.81
2018-09-14T09:25:30.401Z,19.82
2018-09-14T09:26:30.666Z,19.84
2018-09-14T09:27:30.874Z,19.81
2018-09-14T09:28:31.096Z,20.03
2018-09-14T09:29:31.375Z,19.94
2018-09-14T09:30:31.554Z,19.92
2018-09-14T09:31:31.790Z,19.79
2018-09-14T09:32:32.022Z,19.48
2018-09-14T09:33:32.255Z,19.73
2018-09-14T09:34:32.483Z,19.91
2018-09-14T09:35:32.718Z,19.91
2018-09-14T09:36:32.946Z,19.94
2018-09-14T09:37:33.184Z,20.04
2018-09-14T09:38:33.414Z,19.99
2018-09-14T09:39:33.647Z,20.07
2018-09-14T09:40:33.877Z,20.09
2018-09-14T09:41:34.105Z,20.19
2018-09-14T09:42:34.343Z,20.28
2018-09-14T09:43:34.692Z,20.29
2018-09-14T09:44:34.795Z,20.58
2018-09-14T09:45:35.083Z,20.60
2018-09-14T09:46:35.258Z,20.90
2018-09-14T09:47:35.489Z,20.97
2018-09-14T09:48:35.721Z,21.18
2018-09-14T09:49:35.949Z,21.07
2018-09-14T09:50:36.183Z,21.21
2018-09-14T09:51:36.415Z,21.29
2018-09-14T09:52:36.644Z,21.17
2018-09-14T09:53:36.876Z,20.80
2018-09-14T09:54:37.106Z,20.78
2018-09-14T09:55:37.331Z,20.78
2018-09-14T09:56:37.634Z,20.95
2018-09-14T09:57:37.794Z,21.02
2018-09-14T09:58:38.027Z,21.07
2018-09-14T09:59:38.257Z,21.06
2018-09-14T10:00:38.485Z,21.07
2018-09-14T10:01:38.716Z,21.00
2018-09-14T10:02:38.946Z,21.03
2018-09-14T10:03:39.213Z,20.96
2018-09-14T10:04:39.404Z,21.05
2018-09-14T10:05:39.640Z,21.06
2018-09-14T10:06:39.873Z,21.02
2018-09-14T10:07:40.098Z,20.90
2018-09-14T10:08:40.331Z,20.96
2018-09-14T10:09:40.563Z,20.99
2018-09-14T10:10:40.796Z,20.99
2018-09-14T10:11:41.028Z,20.96
2018-09-14T10:12:41.259Z,20.90
2018-09-14T10:13:41.492Z,20.74
2018-09-14T10:14:41.726Z,21.02
2018-09-14T10:15:41.954Z,20.78
2018-09-14T10:16:42.187Z,20.75
2018-09-14T10:17:42.419Z,20.95
2018-09-14T10:18:42.650Z,21.00
2018-09-14T10:19:42.884Z,21.15
2018-09-14T10:20:43.176Z,21.24
2018-09-14T10:21:43.416Z,21.33
2018-09-14T10:22:43.575Z,21.45
2018-09-14T10:23:43.808Z,21.40
2018-09-14T10:24:44.040Z,21.43
2018-09-14T10:25:44.270Z,21.51
2018-09-14T10:26:44.528Z,21.62
2018-09-14T10:27:44.734Z,21.83
2018-09-14T10:28:44.993Z,21.85
2018-09-14T10:29:45.197Z,21.85
2018-09-14T10:30:45.429Z,21.88
2018-09-14T10:31:45.664Z,21.70
2018-09-14T10:32:45.896Z,21.66
2018-09-14T10:33:46.132Z,21.77
2018-09-14T10:34:46.358Z,21.69
2018-09-14T10:35:46.593Z,21.93
2018-09-14T10:36:46.824Z,21.92
2018-09-14T10:37:47.065Z,21.99
2018-09-14T10:38:47.298Z,22.08
2018-09-14T10:39:47.527Z,22.00
2018-09-14T10:40:47.816Z,22.02
2018-09-14T10:41:47.990Z,22.07
2018-09-14T10:42:48.239Z,21.99
2018-09-14T10:43:48.460Z,22.14
2018-09-14T10:44:48.691Z,22.25
2018-09-14T10:45:48.928Z,22.29
2018-09-14T10:46:49.160Z,22.36
2018-09-14T10:47:49.394Z,22.57
2018-09-14T10:48:49.638Z,22.60
2018-09-14T10:49:49.859Z,22.66
2018-09-14T10:50:50.090Z,22.70
2018-09-14T10:51:50.325Z,22.73
2018-09-14T10:52:50.554Z,22.81
2018-09-14T10:53:50.788Z,22.84
2018-09-14T10:54:51.065Z,23.02
2018-09-14T10:55:51.252Z,23.20
2018-09-14T10:56:51.484Z,23.32
2018-09-14T10:57:51.715Z,23.43
2018-09-14T10:58:51.945Z,23.44
2018-09-14T10:59:52.181Z,23.51
2018-09-14T11:00:52.455Z,23.56
2018-09-14T11:01:52.649Z,23.65
2018-09-14T11:02:52.877Z,23.73
2018-09-14T11:03:53.119Z,23.84
2018-09-14T11:04:53.401Z,23.84
2018-09-14T11:05:53.625Z,23.95
2018-09-14T11:06:53.896Z,24.06
2018-09-14T11:07:54.093Z,24.17
2018-09-14T11:08:54.331Z,24.28
2018-09-14T11:09:54.570Z,24.21
2018-09-14T11:10:54.795Z,24.38
2018-09-14T11:11:55.033Z,24.47
2018-09-14T11:12:55.285Z,24.63
2018-09-14T11:13:55.499Z,24.60
2018-09-14T11:14:55.734Z,24.74
2018-09-14T11:15:55.965Z,24.65
2018-09-14T11:16:56.203Z,24.73
2018-09-14T11:17:56.453Z,24.80
2018-09-14T11:18:56.722Z,24.91
2018-09-14T11:19:56.922Z,24.88
2018-09-14T11:20:57.157Z,24.86
2018-09-14T11:21:57.391Z,24.84
2018-09-14T11:22:57.622Z,24.73
2018-09-14T11:23:57.855Z,24.70
2018-09-14T11:24:58.150Z,24.54
2018-09-14T11:25:58.331Z,24.38
2018-09-14T11:26:58.564Z,24.23
2018-09-14T11:27:58.857Z,24.18
2018-09-14T11:28:59.036Z,24.10
2018-09-14T11:29:59.267Z,24.01
2018-09-14T11:30:59.498Z,23.95
2018-09-14T11:31:59.731Z,23.81
2018-09-14T11:32:59.964Z,23.76
2018-09-14T11:34:00.200Z,23.68
2018-09-14T11:35:00.430Z,23.71
2018-09-14T11:36:00.663Z,23.71
2018-09-14T11:37:00.897Z,23.55
2018-09-14T11:38:01.189Z,23.20
2018-09-14T11:39:01.374Z,23.41
2018-09-14T11:40:01.610Z,23.44
2018-09-14T11:41:01.846Z,23.56
2018-09-14T11:42:02.080Z,23.58
2018-09-14T11:43:02.313Z,23.65
2018-09-14T11:44:02.571Z,23.83
2018-09-14T11:45:02.824Z,23.87
2018-09-14T11:46:03.089Z,23.83
2018-09-14T11:47:03.266Z,23.99
2018-09-14T11:48:03.504Z,23.92
2018-09-14T11:49:03.733Z,23.95
2018-09-14T11:50:03.967Z,23.96
2018-09-14T11:51:04.203Z,24.14
2018-09-14T11:52:04.435Z,24.24
2018-09-14T11:53:04.670Z,24.30
2018-09-14T11:54:04.908Z,24.26
2018-09-14T11:55:05.138Z,24.21
2018-09-14T11:56:05.381Z,24.29
2018-09-14T11:57:05.625Z,24.23
2018-09-14T11:58:05.840Z,24.11
2018-09-14T11:59:06.092Z,24.16
2018-09-14T12:00:06.316Z,24.23
2018-09-14T12:01:06.550Z,24.11
2018-09-14T12:02:06.781Z,24.24
2018-09-14T12:03:07.012Z,24.35
2018-09-14T12:04:07.268Z,24.39
2018-09-14T12:05:07.486Z,24.33
2018-09-14T12:06:07.719Z,24.23
2018-09-14T12:07:07.953Z,24.17
2018-09-14T12:08:08.185Z,24.18
2018-09-14T12:09:08.418Z,24.10
2018-09-14T12:10:08.657Z,23.84
2018-09-14T12:11:08.886Z,23.98
2018-09-14T12:12:09.120Z,23.98
2018-09-14T12:13:09.353Z,23.83
2018-09-14T12:14:09.681Z,23.81
2018-09-14T12:15:09.824Z,23.68
2018-09-14T12:16:10.098Z,23.73
2018-09-14T12:17:10.291Z,23.73
2018-09-14T12:18:10.525Z,23.66
2018-09-14T12:19:10.765Z,23.76
2018-09-14T12:20:10.997Z,23.69
2018-09-14T12:21:11.233Z,23.65
2018-09-14T12:22:11.518Z,23.71
2018-09-14T12:23:11.699Z,23.83
2018-09-14T12:24:11.934Z,23.88
2018-09-14T12:25:12.166Z,23.80
2018-09-14T12:26:12.401Z,23.93
2018-09-14T12:27:12.636Z,23.88
2018-09-14T12:28:12.881Z,23.95
2018-09-14T12:29:13.104Z,23.88
2018-09-14T12:30:13.335Z,23.84
2018-09-14T12:31:13.569Z,23.81
2018-09-14T12:32:13.802Z,23.78
2018-09-14T12:33:14.033Z,23.83
2018-09-14T12:34:14.266Z,23.78
2018-09-14T12:35:14.502Z,23.84
2018-09-14T12:36:14.738Z,24.01
2018-09-14T12:37:14.966Z,24.17
2018-09-14T12:38:15.199Z,24.38
2018-09-14T12:39:15.431Z,24.43
2018-09-14T12:40:15.666Z,24.53
2018-09-14T12:41:15.901Z,24.57
2018-09-14T12:42:16.132Z,24.60
2018-09-14T12:43:16.367Z,24.65
2018-09-14T12:44:16.597Z,24.70
2018-09-14T12:45:16.836Z,24.73
2018-09-14T12:46:17.074Z,24.85
2018-09-14T12:47:17.303Z,24.84
2018-09-14T12:48:17.538Z,24.78
2018-09-14T12:49:17.768Z,24.92
2018-09-14T12:50:18.002Z,25.03
2018-09-14T12:51:18.236Z,25.04
2018-09-14T12:52:18.479Z,24.99
2018-09-14T12:53:18.701Z,25.04
2018-09-14T12:54:18.933Z,24.91
2018-09-14T12:55:19.169Z,25.04